Time;durP1;ratioP1;P1;durP2;ratioP2;P2;SDS_P1;SDS_P2;PMS_P1;PMS_P2;Temp;Humidity;BMP_temperature;BMP_pressure;BME280_temperature;BME280_humidity;BME280_pressure;Samples;Min_cycle;Max_cycle;Signal;HPM_P1;HPM_P2
2022/02/01 00:02:17;;;;;;;11.70;3.80;;;3.40;99.90;;;;;;2614563;47;20400;-77
2022/02/01 00:04:54;;;;;;;16.83;4.70;;;3.40;99.90;;;;;;2613665;47;21291;-77
2022/02/01 00:07:39;;;;;;;14.57;4.00;;;3.30;99.90;;;;;;2614106;54;20968;-75
2022/02/01 00:15:42;;;;;;;14.90;3.93;;;3.40;99.90;;;;;;2613073;47;20445;-76
2022/02/01 00:18:26;;;;;;;19.53;4.03;;;3.30;99.90;;;;;;2614593;54;21106;-75
2022/02/01 00:37:12;;;;;;;12.97;5.00;;;3.70;99.90;;;;;;2614256;54;21262;-76
2022/02/01 00:39:43;;;;;;;15.37;4.17;;;3.60;99.90;;;;;;2614923;54;20955;-75
2022/02/01 00:42:10;;;;;;;13.63;5.50;;;3.60;99.90;;;;;;2611246;54;20433;-77
2022/02/01 00:44:37;;;;;;;12.93;3.30;;;3.50;99.90;;;;;;2613564;54;20438;-76
2022/02/01 00:47:03;;;;;;;21.90;5.57;;;3.50;99.90;;;;;;2614344;54;20443;-75
2022/02/01 00:49:30;;;;;;;12.23;5.20;;;3.50;99.90;;;;;;2614955;47;20960;-76
2022/02/01 00:51:56;;;;;;;18.63;4.50;;;3.50;99.90;;;;;;2611619;54;20435;-76
2022/02/01 00:54:22;;;;;;;15.37;3.97;;;3.60;99.90;;;;;;2613621;54;20437;-76
2022/02/01 00:56:48;;;;;;;14.20;4.13;;;3.60;99.90;;;;;;2616424;54;20427;-75
2022/02/01 00:59:14;;;;;;;13.33;3.47;;;3.60;99.90;;;;;;2614737;46;20686;-75
2022/02/01 01:01:40;;;;;;;5.73;2.60;;;3.60;99.90;;;;;;2613730;54;20388;-76
2022/02/01 01:04:06;;;;;;;14.60;3.53;;;3.70;99.90;;;;;;2615198;47;20248;-75
2022/02/01 01:06:31;;;;;;;3.33;2.57;;;3.70;99.90;;;;;;2614332;54;20440;-76
2022/02/01 01:08:57;;;;;;;9.83;5.17;;;3.60;99.90;;;;;;2615319;54;20178;-77
2022/02/01 01:11:24;;;;;;;16.17;4.83;;;3.70;99.90;;;;;;2614530;54;20739;-76
2022/02/01 01:43:44;;;;;;;17.10;5.80;;;3.70;99.90;;;;;;2614995;54;20406;-76
2022/02/01 01:54:05;;;;;;;18.47;5.53;;;3.80;99.90;;;;;;2613841;47;20544;-77
2022/02/01 01:56:35;;;;;;;16.73;3.67;;;3.80;99.90;;;;;;2615457;54;20887;-76
2022/02/01 01:59:04;;;;;;;5.40;3.37;;;3.80;99.90;;;;;;2612720;54;20407;-76
2022/02/01 02:01:31;;;;;;;11.50;4.17;;;3.70;99.90;;;;;;2613408;39;20822;-75
2022/02/01 02:03:57;;;;;;;8.27;4.20;;;3.70;99.90;;;;;;2613016;39;20779;-75
2022/02/01 02:06:23;;;;;;;8.90;3.00;;;3.70;99.90;;;;;;2613751;54;20956;-76
2022/02/01 02:08:53;;;;;;;8.70;3.27;;;3.70;99.90;;;;;;2614322;54;20242;-76
2022/02/01 02:14:18;;;;;;;10.50;4.30;;;3.70;99.90;;;;;;2615344;39;20503;-75
2022/02/01 02:16:49;;;;;;;6.17;2.80;;;3.70;99.90;;;;;;2613687;54;20419;-76
2022/02/01 02:19:15;;;;;;;5.40;2.17;;;3.70;99.90;;;;;;2613928;47;20416;-75
2022/02/01 02:21:46;;;;;;;6.53;3.43;;;3.70;99.90;;;;;;2613758;54;20477;-76
2022/02/01 02:24:12;;;;;;;12.43;4.30;;;3.60;99.90;;;;;;2614972;54;20464;-75
2022/02/01 02:26:38;;;;;;;4.87;2.80;;;3.60;99.90;;;;;;2614933;39;20841;-75
2022/02/01 02:29:05;;;;;;;7.53;2.63;;;3.60;99.90;;;;;;2614612;54;20262;-75
2022/02/01 02:31:36;;;;;;;14.10;3.40;;;3.60;99.90;;;;;;2612859;51;20427;-75
2022/02/01 02:34:08;;;;;;;11.13;3.67;;;3.60;99.90;;;;;;2614348;54;20432;-76
2022/02/01 02:36:37;;;;;;;6.60;2.43;;;3.60;99.90;;;;;;2614447;54;20394;-76
2022/02/01 02:39:23;;;;;;;8.03;2.97;;;3.60;99.90;;;;;;2614706;54;21243;-76
2022/02/01 02:47:05;;;;;;;6.23;3.33;;;3.60;99.90;;;;;;2613498;39;20984;-77
2022/02/01 02:49:31;;;;;;;16.33;5.00;;;3.60;99.90;;;;;;2610222;47;20486;-76
2022/02/01 02:51:57;;;;;;;8.30;3.30;;;3.60;99.90;;;;;;2611614;54;20984;-75
2022/02/01 02:54:25;;;;;;;6.83;3.30;;;3.70;99.90;;;;;;2613939;54;20452;-75
2022/02/01 02:56:57;;;;;;;12.87;4.20;;;3.80;99.90;;;;;;2611820;54;20155;-76
2022/02/01 02:59:25;;;;;;;14.63;3.40;;;3.70;99.90;;;;;;2612464;54;20561;-76
2022/02/01 03:01:51;;;;;;;8.40;2.53;;;3.70;99.90;;;;;;2613808;47;20443;-76
2022/02/01 03:04:19;;;;;;;6.27;2.70;;;3.70;99.90;;;;;;2613971;47;20429;-76
2022/02/01 03:06:45;;;;;;;6.33;3.67;;;3.70;99.90;;;;;;2614293;47;20980;-76
2022/02/01 03:09:12;;;;;;;10.23;6.07;;;3.70;99.90;;;;;;2612786;50;20439;-76
2022/02/01 03:11:39;;;;;;;11.80;2.80;;;3.70;99.90;;;;;;2612612;39;20996;-75
2022/02/01 03:14:19;;;;;;;9.43;3.30;;;3.70;99.90;;;;;;2611826;54;20436;-76
2022/02/01 03:17:07;;;;;;;10.83;5.63;;;3.70;99.90;;;;;;2611994;47;20430;-76
2022/02/01 03:19:53;;;;;;;10.43;3.20;;;3.70;99.90;;;;;;2612651;54;20427;-76
2022/02/01 03:22:21;;;;;;;6.80;3.27;;;3.70;99.90;;;;;;2613733;54;20998;-76
2022/02/01 03:24:51;;;;;;;5.70;4.00;;;3.80;99.90;;;;;;2614198;47;20959;-74
2022/02/01 03:27:18;;;;;;;10.70;3.70;;;3.80;99.90;;;;;;2615539;39;20828;-76
2022/02/01 03:29:44;;;;;;;10.43;3.50;;;3.80;99.90;;;;;;2612788;54;21054;-75
2022/02/01 03:32:10;;;;;;;18.43;4.87;;;3.90;99.90;;;;;;2614666;54;20416;-75
2022/02/01 03:34:36;;;;;;;10.33;3.27;;;3.90;99.90;;;;;;2613977;54;20428;-75
2022/02/01 03:37:02;;;;;;;7.10;3.27;;;3.80;99.90;;;;;;2613581;54;20407;-76
2022/02/01 03:39:28;;;;;;;18.50;5.90;;;3.80;99.90;;;;;;2614362;54;20526;-76
2022/02/01 03:41:55;;;;;;;14.63;3.90;;;3.80;99.90;;;;;;2613551;47;20424;-75
2022/02/01 03:44:21;;;;;;;19.80;3.87;;;3.80;99.90;;;;;;2614409;51;20159;-76
2022/02/01 03:47:01;;;;;;;9.07;3.80;;;3.90;99.90;;;;;;2613346;39;20839;-76
2022/02/01 03:49:28;;;;;;;14.33;5.13;;;3.90;99.90;;;;;;2613174;54;20266;-76
2022/02/01 03:51:58;;;;;;;8.77;3.77;;;3.90;99.90;;;;;;2611988;47;20548;-77
2022/02/01 03:54:33;;;;;;;16.47;4.77;;;3.90;99.90;;;;;;2613597;47;20442;-76
2022/02/01 03:57:01;;;;;;;11.60;4.70;;;3.90;99.90;;;;;;2614887;39;20779;-77
2022/02/01 03:59:27;;;;;;;12.87;3.90;;;3.90;99.90;;;;;;2613906;39;20897;-76
2022/02/01 04:01:57;;;;;;;9.73;4.40;;;3.80;99.90;;;;;;2614707;54;20418;-75
2022/02/01 04:04:29;;;;;;;4.33;2.23;;;3.80;99.90;;;;;;2613675;47;20427;-76
2022/02/01 04:06:56;;;;;;;2.70;1.90;;;3.80;99.90;;;;;;2613906;39;20824;-77
2022/02/01 04:09:23;;;;;;;10.30;4.17;;;3.80;99.90;;;;;;2614497;54;20439;-76
2022/02/01 04:11:49;;;;;;;7.80;2.40;;;3.70;99.90;;;;;;2614613;39;20486;-75
2022/02/01 04:14:20;;;;;;;7.80;2.87;;;3.70;99.90;;;;;;2611997;54;20419;-77
2022/02/01 04:16:45;;;;;;;4.63;2.27;;;3.70;99.90;;;;;;2615079;47;20435;-76
2022/02/01 04:19:12;;;;;;;5.50;2.27;;;3.70;99.90;;;;;;2614540;54;20503;-76
2022/02/01 04:21:41;;;;;;;4.37;2.57;;;3.60;99.90;;;;;;2614252;47;20171;-76
2022/02/01 04:24:07;;;;;;;14.63;4.53;;;3.60;99.90;;;;;;2613104;47;20422;-75
2022/02/01 04:26:32;;;;;;;5.30;2.10;;;3.70;99.90;;;;;;2613415;54;21082;-76
2022/02/01 04:28:58;;;;;;;16.27;5.23;;;3.60;99.90;;;;;;2612453;54;20158;-75
2022/02/01 04:31:24;;;;;;;6.53;3.60;;;3.70;99.90;;;;;;2615101;54;20250;-75
2022/02/01 04:33:50;;;;;;;10.60;2.97;;;3.60;99.90;;;;;;2615121;54;20159;-75
2022/02/01 04:36:16;;;;;;;11.73;3.60;;;3.70;99.90;;;;;;2613693;39;20553;-76
2022/02/01 04:38:49;;;;;;;25.37;5.83;;;3.60;99.90;;;;;;2613809;47;20170;-76
2022/02/01 04:41:14;;;;;;;8.77;3.03;;;3.70;99.90;;;;;;2614557;54;20483;-75
2022/02/01 04:43:40;;;;;;;5.50;3.30;;;3.60;99.90;;;;;;2615169;54;20506;-76
2022/02/01 04:46:09;;;;;;;11.33;4.10;;;3.60;99.90;;;;;;2614469;54;20179;-75
2022/02/01 04:48:34;;;;;;;6.80;3.47;;;3.70;99.90;;;;;;2615263;39;20827;-76
2022/02/01 04:51:00;;;;;;;8.87;3.17;;;3.60;99.90;;;;;;2614545;54;20415;-76
2022/02/01 04:53:26;;;;;;;5.70;2.50;;;3.60;99.90;;;;;;2614509;54;20249;-75
2022/02/01 04:55:55;;;;;;;10.83;3.63;;;3.60;99.90;;;;;;2613522;47;20181;-76
2022/02/01 04:58:22;;;;;;;7.20;3.60;;;3.70;99.90;;;;;;2614771;54;20403;-77
2022/02/01 05:00:48;;;;;;;15.90;4.83;;;3.70;99.90;;;;;;2612696;54;20515;-76
2022/02/01 05:03:14;;;;;;;6.03;2.40;;;3.70;99.90;;;;;;2615621;54;20676;-76
2022/02/01 05:05:40;;;;;;;2.60;1.67;;;3.70;99.90;;;;;;2613293;54;20408;-76
2022/02/01 05:08:08;;;;;;;6.73;3.97;;;3.70;99.90;;;;;;2615104;31;20910;-76
2022/02/01 05:10:35;;;;;;;14.40;4.37;;;3.70;99.90;;;;;;2614989;54;20267;-76
2022/02/01 05:15:47;;;;;;;4.63;2.43;;;3.70;99.90;;;;;;2614148;54;20410;-75
2022/02/01 05:18:25;;;;;;;7.40;2.20;;;3.80;99.90;;;;;;2613987;47;20401;-76
2022/02/01 05:21:04;;;;;;;24.27;3.50;;;3.80;99.90;;;;;;2614136;54;20420;-75
2022/02/01 05:23:30;;;;;;;3.03;2.33;;;3.80;99.90;;;;;;2615499;54;20453;-76
2022/02/01 05:25:57;;;;;;;9.53;3.30;;;3.80;99.90;;;;;;2615015;54;20519;-75
2022/02/01 05:28:23;;;;;;;14.93;5.23;;;3.80;99.90;;;;;;2614742;54;20423;-75
2022/02/01 05:30:49;;;;;;;10.73;4.00;;;3.80;99.90;;;;;;2613235;47;20450;-77
2022/02/01 05:33:15;;;;;;;7.53;3.07;;;3.90;99.90;;;;;;2614647;51;20163;-75
2022/02/01 05:35:40;;;;;;;9.20;3.00;;;3.80;99.90;;;;;;2614773;54;20150;-75
2022/02/01 05:38:06;;;;;;;7.67;3.17;;;3.80;99.90;;;;;;2614806;54;20163;-76
2022/02/01 05:40:32;;;;;;;10.10;2.50;;;3.80;99.90;;;;;;2614553;54;20142;-77
2022/02/01 05:45:25;;;;;;;6.80;2.27;;;3.80;99.90;;;;;;2615081;54;20470;-75
2022/02/01 05:47:51;;;;;;;9.90;4.53;;;3.80;99.90;;;;;;2613483;54;20195;-76
2022/02/01 05:50:17;;;;;;;8.97;3.87;;;3.80;99.90;;;;;;2614104;54;21042;-75
2022/02/01 05:52:43;;;;;;;5.73;2.77;;;3.80;99.90;;;;;;2613454;54;20408;-75
2022/02/01 05:55:13;;;;;;;9.40;4.03;;;3.70;99.90;;;;;;2615642;54;20154;-75
2022/02/01 05:57:39;;;;;;;9.23;4.67;;;3.70;99.90;;;;;;2615153;54;20487;-75
2022/02/01 06:00:07;;;;;;;7.43;3.60;;;3.80;99.90;;;;;;2613614;54;21003;-76
2022/02/01 06:02:38;;;;;;;7.20;4.23;;;3.80;99.90;;;;;;2612990;54;20419;-76
2022/02/01 06:05:05;;;;;;;7.13;3.67;;;3.80;99.90;;;;;;2614040;54;20944;-76
2022/02/01 06:07:30;;;;;;;11.97;5.33;;;3.80;99.90;;;;;;2613961;54;20178;-76
2022/02/01 06:09:57;;;;;;;12.23;3.60;;;3.80;99.90;;;;;;2614164;54;20517;-75
2022/02/01 06:12:22;;;;;;;8.77;6.83;;;3.80;99.90;;;;;;2613889;54;20238;-75
2022/02/01 06:14:48;;;;;;;6.40;2.47;;;3.80;99.90;;;;;;2614905;54;20422;-75
2022/02/01 06:17:14;;;;;;;6.43;3.40;;;3.80;99.90;;;;;;2613495;54;20154;-76
2022/02/01 06:19:40;;;;;;;8.43;3.63;;;3.80;99.90;;;;;;2613591;39;20542;-76
2022/02/01 06:22:05;;;;;;;10.00;4.63;;;3.80;99.90;;;;;;2612636;54;20165;-81
2022/02/01 06:24:33;;;;;;;5.07;1.70;;;3.70;99.90;;;;;;2613472;54;20147;-76
2022/02/01 06:26:58;;;;;;;6.17;4.63;;;3.70;99.90;;;;;;2609995;54;20170;-76
2022/02/01 06:29:24;;;;;;;18.53;6.03;;;3.60;99.90;;;;;;2613667;39;20782;-78
2022/02/01 06:31:50;;;;;;;23.30;4.87;;;3.70;99.90;;;;;;2613416;54;20210;-77
2022/02/01 06:34:16;;;;;;;11.80;3.37;;;3.60;99.90;;;;;;2611991;47;20170;-76
2022/02/01 06:36:42;;;;;;;7.33;4.27;;;3.60;99.90;;;;;;2613625;54;20158;-76
2022/02/01 06:39:08;;;;;;;7.37;3.57;;;3.70;99.90;;;;;;2611568;54;20166;-75
2022/02/01 06:41:35;;;;;;;8.40;3.63;;;3.70;99.90;;;;;;2612431;46;20446;-75
2022/02/01 06:44:05;;;;;;;9.53;4.37;;;3.80;99.90;;;;;;2612323;54;20411;-76
2022/02/01 06:46:31;;;;;;;4.90;3.30;;;3.90;99.90;;;;;;2610047;54;20447;-75
2022/02/01 06:48:58;;;;;;;6.90;3.80;;;3.80;99.90;;;;;;2613055;54;20438;-76
2022/02/01 06:51:26;;;;;;;10.20;3.00;;;3.80;99.90;;;;;;2613158;54;20684;-76
2022/02/01 06:53:54;;;;;;;16.77;5.57;;;3.90;99.90;;;;;;2613036;54;20416;-76
2022/02/01 06:56:28;;;;;;;7.40;3.80;;;3.90;99.90;;;;;;2611209;39;20825;-77
2022/02/01 06:58:58;;;;;;;12.63;5.10;;;3.90;99.90;;;;;;2610385;54;20428;-76
2022/02/01 07:01:25;;;;;;;6.73;4.57;;;3.90;99.90;;;;;;2610822;50;20452;-76
2022/02/01 07:03:51;;;;;;;8.47;4.10;;;3.90;99.90;;;;;;2608608;54;20400;-76
2022/02/01 07:06:17;;;;;;;12.20;5.07;;;3.90;99.90;;;;;;2606453;54;20476;-76
2022/02/01 07:08:45;;;;;;;3.80;2.87;;;3.90;99.90;;;;;;2608543;47;20482;-75
2022/02/01 07:11:12;;;;;;;7.90;4.43;;;3.80;99.90;;;;;;2609717;47;20461;-76
2022/02/01 07:13:39;;;;;;;15.23;6.23;;;3.90;99.90;;;;;;2610441;54;20406;-76
2022/02/01 07:16:06;;;;;;;4.60;3.27;;;3.90;99.90;;;;;;2609648;47;20427;-79
2022/02/01 07:18:32;;;;;;;11.60;4.73;;;3.90;99.90;;;;;;2610704;54;20507;-76
2022/02/01 07:20:58;;;;;;;11.17;4.97;;;3.90;99.90;;;;;;2612770;54;20977;-75
2022/02/01 07:23:26;;;;;;;9.57;5.13;;;3.90;99.90;;;;;;2611995;39;20295;-75
2022/02/01 07:25:53;;;;;;;9.50;4.67;;;4.00;99.90;;;;;;2609430;54;20446;-76
2022/02/01 07:28:22;;;;;;;11.50;6.50;;;4.00;99.90;;;;;;2607750;47;21386;-75
2022/02/01 07:30:48;;;;;;;10.20;5.93;;;4.00;99.90;;;;;;2602833;39;20990;-75
2022/02/01 07:33:14;;;;;;;13.07;5.63;;;4.10;99.90;;;;;;2607215;54;20991;-76
2022/02/01 07:35:40;;;;;;;13.10;6.50;;;4.00;99.90;;;;;;2606694;54;20404;-76
2022/02/01 07:38:07;;;;;;;8.70;5.30;;;4.10;99.90;;;;;;2604248;54;20408;-78
2022/02/01 07:40:34;;;;;;;13.13;4.20;;;4.10;99.90;;;;;;2607462;54;20843;-76
2022/02/01 07:43:00;;;;;;;12.63;4.53;;;4.10;99.90;;;;;;2606977;54;20556;-76
2022/02/01 07:45:29;;;;;;;4.97;3.50;;;4.10;99.90;;;;;;2605653;49;20570;-76
2022/02/01 07:47:57;;;;;;;10.10;4.93;;;4.10;99.90;;;;;;2608013;47;20431;-75
2022/02/01 07:50:23;;;;;;;13.80;6.13;;;4.20;99.90;;;;;;2606349;54;20441;-76
2022/02/01 07:52:49;;;;;;;12.10;4.50;;;4.20;99.90;;;;;;2608844;39;20824;-76
2022/02/01 07:55:15;;;;;;;9.53;4.40;;;4.20;99.90;;;;;;2606357;54;20523;-76
2022/02/01 07:57:41;;;;;;;12.47;6.00;;;4.20;99.90;;;;;;2607475;54;20155;-76
2022/02/01 08:00:08;;;;;;;15.90;6.20;;;4.20;99.90;;;;;;2605577;54;20158;-75
2022/02/01 08:02:35;;;;;;;12.03;5.90;;;4.20;99.90;;;;;;2606862;54;20155;-75
2022/02/01 08:05:01;;;;;;;5.97;5.00;;;4.20;99.90;;;;;;2606772;54;22698;-75
2022/02/01 08:07:27;;;;;;;13.33;5.03;;;4.10;99.90;;;;;;2607622;54;20450;-77
2022/02/01 08:09:58;;;;;;;17.57;7.30;;;4.10;99.90;;;;;;2606477;54;20444;-75
2022/02/01 08:20:09;;;;;;;13.00;5.07;;;4.00;99.90;;;;;;2606039;54;20419;-76
2022/02/01 08:23:17;;;;;;;7.10;5.93;;;3.90;99.90;;;;;;2605826;54;20404;-75
2022/02/01 08:25:25;;;;;;;13.17;7.30;;;3.90;99.90;;;;;;2605764;47;20446;-76
2022/02/01 08:27:55;;;;;;;12.47;5.93;;;3.90;99.90;;;;;;2606388;46;20554;-76
2022/02/01 08:30:23;;;;;;;8.60;7.00;;;3.90;99.90;;;;;;2606093;54;20416;-75
2022/02/01 08:32:49;;;;;;;7.33;5.50;;;3.90;99.90;;;;;;2607417;54;20404;-76
2022/02/01 08:35:16;;;;;;;11.50;6.43;;;3.90;99.90;;;;;;2608453;54;21111;-75
2022/02/01 08:37:42;;;;;;;12.93;7.07;;;3.90;99.90;;;;;;2607858;54;20454;-76
2022/02/01 08:40:09;;;;;;;13.60;7.63;;;3.90;99.90;;;;;;2606000;47;20436;-76
2022/02/01 08:42:35;;;;;;;12.37;5.50;;;4.00;99.90;;;;;;2607952;54;20419;-76
2022/02/01 08:45:04;;;;;;;17.03;7.23;;;4.00;99.90;;;;;;2607411;54;20500;-76
2022/02/01 08:47:30;;;;;;;14.97;7.30;;;4.00;99.90;;;;;;2608546;47;20526;-75
2022/02/01 08:49:56;;;;;;;13.37;8.27;;;4.10;99.90;;;;;;2607004;54;21297;-75
2022/02/01 08:52:33;;;;;;;12.93;7.63;;;4.10;99.90;;;;;;2607918;39;20641;-75
2022/02/01 08:55:01;;;;;;;17.10;6.97;;;4.10;99.90;;;;;;2608817;39;20831;-76
2022/02/01 08:57:29;;;;;;;10.40;6.87;;;4.10;99.90;;;;;;2606094;54;20451;-74
2022/02/01 09:00:01;;;;;;;14.97;7.50;;;4.10;99.90;;;;;;2606884;54;20416;-75
2022/02/01 09:02:27;;;;;;;15.37;7.33;;;4.20;99.90;;;;;;2607876;54;20439;-75
2022/02/01 09:04:54;;;;;;;11.03;8.07;;;4.30;99.90;;;;;;2607215;54;20398;-75
2022/02/01 09:07:20;;;;;;;9.43;7.07;;;4.20;99.90;;;;;;2607482;46;21011;-74
2022/02/01 09:09:46;;;;;;;9.10;6.80;;;4.20;99.90;;;;;;2608151;54;20450;-74
2022/02/01 09:12:12;;;;;;;8.43;6.00;;;4.30;99.90;;;;;;2606598;54;20427;-74
2022/02/01 09:14:39;;;;;;;11.43;6.27;;;4.30;99.90;;;;;;2606202;54;20979;-75
2022/02/01 09:17:06;;;;;;;14.83;7.53;;;4.40;99.90;;;;;;2607455;54;20416;-75
2022/02/01 09:19:32;;;;;;;8.40;7.07;;;4.40;99.90;;;;;;2607526;54;20434;-75
2022/02/01 09:22:00;;;;;;;4.57;3.53;;;4.40;99.90;;;;;;2607563;54;20399;-75
2022/02/01 09:24:26;;;;;;;4.90;4.03;;;4.40;99.90;;;;;;2606621;54;20458;-75
2022/02/01 09:26:52;;;;;;;11.70;7.53;;;4.40;99.90;;;;;;2607564;47;20435;-75
2022/02/01 09:29:21;;;;;;;5.57;4.67;;;4.50;99.90;;;;;;2608890;54;20504;-75
2022/02/01 09:31:49;;;;;;;13.20;6.67;;;4.50;99.90;;;;;;2608224;54;20676;-75
2022/02/01 09:34:15;;;;;;;9.77;5.27;;;4.50;99.90;;;;;;2607595;39;21082;-75
2022/02/01 09:36:41;;;;;;;17.10;6.27;;;4.40;99.90;;;;;;2608429;54;20415;-76
2022/02/01 09:39:08;;;;;;;13.50;8.00;;;4.50;99.90;;;;;;2606628;54;20417;-75
2022/02/01 09:41:38;;;;;;;7.10;5.73;;;4.60;99.90;;;;;;2606358;47;20445;-75
2022/02/01 09:44:04;;;;;;;21.13;10.93;;;4.50;99.90;;;;;;2606120;47;20419;-75
2022/02/01 09:46:30;;;;;;;8.87;7.27;;;4.50;99.90;;;;;;2608569;54;20459;-75
2022/02/01 09:48:57;;;;;;;13.87;7.63;;;4.50;99.90;;;;;;2608503;54;20420;-76
2022/02/01 09:51:24;;;;;;;13.63;6.60;;;4.50;99.90;;;;;;2606599;39;21528;-75
2022/02/01 09:53:50;;;;;;;14.47;9.17;;;4.60;99.90;;;;;;2611155;47;20430;-75
2022/02/01 09:56:17;;;;;;;10.67;8.57;;;4.50;99.90;;;;;;2612650;54;20399;-76
2022/02/01 09:58:47;;;;;;;14.43;8.10;;;4.60;99.90;;;;;;2613827;54;20438;-75
2022/02/01 10:01:27;;;;;;;13.63;10.50;;;4.60;99.90;;;;;;2607735;54;20864;-76
2022/02/01 10:04:08;;;;;;;13.27;9.23;;;4.70;99.90;;;;;;2604696;47;20451;-75
2022/02/01 10:06:39;;;;;;;11.20;7.70;;;4.70;99.90;;;;;;2607259;54;21056;-75
2022/02/01 10:09:10;;;;;;;8.83;7.10;;;4.70;99.90;;;;;;2605076;54;20435;-75
2022/02/01 10:11:45;;;;;;;10.97;6.90;;;4.60;99.90;;;;;;2606313;54;20404;-74
2022/02/01 10:14:19;;;;;;;12.00;9.20;;;4.70;99.90;;;;;;2606992;54;20391;-74
2022/02/01 10:16:50;;;;;;;10.30;8.07;;;4.70;99.90;;;;;;2606306;54;21013;-75
2022/02/01 10:19:18;;;;;;;13.33;8.40;;;4.70;99.90;;;;;;2608099;39;21039;-75
2022/02/01 10:21:53;;;;;;;15.80;9.43;;;4.80;99.90;;;;;;2608530;54;20411;-76
2022/02/01 10:24:40;;;;;;;14.50;11.87;;;4.80;99.90;;;;;;2605345;54;20479;-75
2022/02/01 10:27:14;;;;;;;12.60;9.03;;;4.80;99.90;;;;;;2607050;54;20490;-76
2022/02/01 10:30:14;;;;;;;16.27;9.10;;;4.80;99.90;;;;;;2605803;54;20412;-75
2022/02/01 10:38:00;;;;;;;10.57;9.17;;;4.80;99.90;;;;;;2607884;47;20419;-76
2022/02/01 10:40:43;;;;;;;11.70;9.10;;;4.80;99.90;;;;;;2607418;54;20860;-75
2022/02/01 10:43:30;;;;;;;9.23;8.10;;;4.90;99.90;;;;;;2607416;47;20441;-75
2022/02/01 10:46:09;;;;;;;11.93;9.47;;;4.90;99.90;;;;;;2606509;46;20526;-76
2022/02/01 10:48:36;;;;;;;11.63;6.67;;;4.90;99.90;;;;;;2609506;39;20853;-75
2022/02/01 10:51:14;;;;;;;10.63;6.20;;;5.00;99.90;;;;;;2607278;54;20541;-75
2022/02/01 10:53:41;;;;;;;12.47;9.73;;;5.00;99.90;;;;;;2607607;54;20405;-75
2022/02/01 10:56:16;;;;;;;14.30;11.60;;;5.00;99.90;;;;;;2608630;54;20386;-75
2022/02/01 10:58:44;;;;;;;16.77;11.17;;;5.10;99.90;;;;;;2607156;47;20402;-74
2022/02/01 11:01:11;;;;;;;22.10;13.60;;;5.10;99.90;;;;;;2608666;54;20486;-74
2022/02/01 11:03:45;;;;;;;17.50;11.47;;;5.10;99.90;;;;;;2606065;39;21051;-75
2022/02/01 11:06:12;;;;;;;14.40;12.90;;;5.10;99.90;;;;;;2607139;54;20434;-76
2022/02/01 11:08:40;;;;;;;14.10;9.83;;;5.10;99.90;;;;;;2608686;54;20441;-75
2022/02/01 11:11:13;;;;;;;12.77;10.90;;;5.10;99.90;;;;;;2609455;54;20452;-75
2022/02/01 11:13:42;;;;;;;15.97;9.20;;;5.20;99.90;;;;;;2611311;54;20416;-75
2022/02/01 11:16:13;;;;;;;12.63;9.30;;;5.20;99.90;;;;;;2610151;54;20420;-75
2022/02/01 11:18:39;;;;;;;11.63;8.50;;;5.30;99.90;;;;;;2610889;47;20428;-75
2022/02/01 11:21:05;;;;;;;17.73;9.10;;;5.30;99.90;;;;;;2608833;47;20411;-75
2022/02/01 11:26:36;;;;;;;11.53;5.00;;;5.40;99.90;;;;;;2609654;54;20703;-75
2022/02/01 11:31:46;;;;;;;8.33;7.30;;;5.40;99.90;;;;;;2610308;47;20423;-75
2022/02/01 11:34:28;;;;;;;8.93;7.90;;;5.50;99.90;;;;;;2609786;39;20808;-75
2022/02/01 11:37:03;;;;;;;7.80;5.97;;;5.50;99.90;;;;;;2611439;54;20434;-77
2022/02/01 11:39:30;;;;;;;6.47;5.40;;;5.50;99.90;;;;;;2609810;54;20907;-76
2022/02/01 11:41:57;;;;;;;23.17;5.77;;;5.50;99.90;;;;;;2610806;54;20398;-75
2022/02/01 11:44:33;;;;;;;6.23;5.63;;;5.60;99.90;;;;;;2609713;54;20375;-76
2022/02/01 11:47:21;;;;;;;10.90;8.03;;;5.60;99.90;;;;;;2611930;54;20968;-75
2022/02/01 11:49:57;;;;;;;8.80;7.73;;;5.70;99.90;;;;;;2609184;54;20451;-76
2022/02/01 11:52:25;;;;;;;8.03;6.30;;;5.70;99.90;;;;;;2608331;47;20405;-76
2022/02/01 11:55:06;;;;;;;10.60;6.47;;;5.80;99.90;;;;;;2610927;54;20403;-75
2022/02/01 11:57:32;;;;;;;9.03;7.97;;;5.80;99.90;;;;;;2605561;54;20507;-75
2022/02/01 12:00:14;;;;;;;9.17;7.00;;;5.90;99.90;;;;;;2607840;54;20386;-76
2022/02/01 12:02:56;;;;;;;9.07;7.87;;;5.90;99.90;;;;;;2605804;54;20420;-76
2022/02/01 12:05:37;;;;;;;9.10;8.10;;;6.00;99.90;;;;;;2604787;54;20399;-75
2022/02/01 12:08:15;;;;;;;8.63;6.80;;;6.00;99.90;;;;;;2604462;54;20391;-76
2022/02/01 12:10:48;;;;;;;10.43;7.63;;;6.10;99.90;;;;;;2603353;54;21522;-75
2022/02/01 12:13:17;;;;;;;8.40;7.50;;;6.10;99.90;;;;;;2604119;54;20898;-75
2022/02/01 12:15:45;;;;;;;9.83;7.37;;;6.10;99.90;;;;;;2608444;39;20963;-75
2022/02/01 12:18:42;;;;;;;9.73;7.40;;;6.20;99.90;;;;;;2611242;54;20458;-76
2022/02/01 12:21:29;;;;;;;7.13;6.33;;;6.20;99.90;;;;;;2606014;47;20956;-75
2022/02/01 12:24:03;;;;;;;6.30;5.70;;;6.20;99.90;;;;;;2606991;39;20992;-81
2022/02/01 12:26:34;;;;;;;8.33;6.17;;;6.30;99.90;;;;;;2610754;54;20954;-78
2022/02/01 12:29:04;;;;;;;8.13;6.43;;;6.30;99.90;;;;;;2609207;47;20432;-75
2022/02/01 12:31:33;;;;;;;8.60;5.27;;;6.40;99.90;;;;;;2611170;39;20541;-77
2022/02/01 12:34:02;;;;;;;8.33;7.10;;;6.40;99.90;;;;;;2608443;47;21054;-78
2022/02/01 12:36:36;;;;;;;6.30;5.53;;;6.40;99.90;;;;;;2608722;54;20400;-77
2022/02/01 12:39:31;;;;;;;8.97;6.30;;;6.50;99.90;;;;;;2609169;47;20406;-76
2022/02/01 12:42:15;;;;;;;9.33;5.43;;;6.50;99.90;;;;;;2609551;54;20538;-75
2022/02/01 12:47:24;;;;;;;8.70;6.97;;;6.50;99.90;;;;;;2608643;54;20867;-77
2022/02/01 12:49:54;;;;;;;6.43;5.83;;;6.50;99.90;;;;;;2606938;54;20423;-76
2022/02/01 12:52:25;;;;;;;5.93;5.10;;;6.60;99.90;;;;;;2610390;54;20411;-75
2022/02/01 12:55:00;;;;;;;8.23;7.40;;;6.60;99.90;;;;;;2609239;54;20436;-76
2022/02/01 12:57:28;;;;;;;6.43;4.70;;;6.60;99.90;;;;;;2611402;54;20478;-76
2022/02/01 13:00:00;;;;;;;5.03;4.50;;;6.60;99.90;;;;;;2609084;47;20420;-76
2022/02/01 13:02:31;;;;;;;7.67;4.40;;;6.60;99.90;;;;;;2610093;47;20407;-75
2022/02/01 13:05:03;;;;;;;2.87;2.67;;;6.70;99.90;;;;;;2611280;54;20419;-76
2022/02/01 13:18:15;;;;;;;5.40;4.90;;;6.80;99.90;;;;;;2610068;54;20423;-75
2022/02/01 13:20:42;;;;;;;6.80;6.17;;;6.80;99.90;;;;;;2609310;54;20407;-76
2022/02/01 13:23:08;;;;;;;6.70;4.73;;;6.80;99.90;;;;;;2608091;54;20562;-76
2022/02/01 13:25:39;;;;;;;6.13;4.57;;;6.80;99.90;;;;;;2608941;54;20451;-76
2022/02/01 13:28:15;;;;;;;3.97;3.67;;;6.90;99.90;;;;;;2612276;54;20414;-76
2022/02/01 13:30:44;;;;;;;3.80;3.50;;;6.90;99.90;;;;;;2609816;39;20794;-76
2022/02/01 13:33:12;;;;;;;4.03;3.70;;;7.00;99.90;;;;;;2612006;54;20532;-76
2022/02/01 13:35:50;;;;;;;4.40;4.00;;;7.00;99.90;;;;;;2609849;47;20546;-75
2022/02/01 13:38:17;;;;;;;3.43;3.13;;;7.00;99.90;;;;;;2610572;47;20475;-77
2022/02/01 13:40:42;;;;;;;4.73;4.20;;;7.00;99.90;;;;;;2607961;54;20414;-75
2022/02/01 13:43:27;;;;;;;3.87;3.47;;;7.00;99.90;;;;;;2610661;39;20470;-76
2022/02/01 13:45:54;;;;;;;4.70;4.30;;;7.00;99.90;;;;;;2612029;54;20499;-76
2022/02/01 13:48:21;;;;;;;4.67;4.23;;;7.10;99.90;;;;;;2611182;54;20406;-77
2022/02/01 13:50:48;;;;;;;4.07;3.77;;;7.10;99.90;;;;;;2610471;54;20437;-76
2022/02/01 13:53:15;;;;;;;7.00;5.80;;;7.10;99.90;;;;;;2607438;54;20412;-76
2022/02/01 13:55:41;;;;;;;5.03;4.53;;;7.10;99.90;;;;;;2605703;39;21191;-75
2022/02/01 13:58:19;;;;;;;4.60;4.20;;;7.20;99.90;;;;;;2610202;54;20464;-75
2022/02/01 14:00:53;;;;;;;5.93;5.33;;;7.20;99.90;;;;;;2608042;54;20975;-77
2022/02/01 14:06:24;;;;;;;6.47;5.90;;;7.30;99.90;;;;;;2608091;54;21056;-77
2022/02/01 14:14:26;;;;;;;8.53;7.67;;;7.30;99.90;;;;;;2608008;51;20535;-75
2022/02/01 14:34:53;;;;;;;14.53;10.97;;;7.60;99.90;;;;;;2608995;47;20486;-76
2022/02/01 14:37:25;;;;;;;16.23;13.37;;;7.60;99.90;;;;;;2609886;54;20396;-75
2022/02/01 14:45:05;;;;;;;20.40;16.27;;;7.70;99.90;;;;;;2606904;54;20443;-76
2022/02/01 14:47:31;;;;;;;17.83;15.20;;;7.80;99.90;;;;;;2612016;54;20424;-76
2022/02/01 14:49:57;;;;;;;21.07;16.30;;;7.80;99.90;;;;;;2608198;39;20804;-77
2022/02/01 14:52:25;;;;;;;23.67;16.37;;;7.80;99.90;;;;;;2610572;54;20648;-76
2022/02/01 14:54:54;;;;;;;16.30;12.10;;;7.90;99.90;;;;;;2609368;54;20446;-76
2022/02/01 15:13:34;;;;;;;28.13;16.57;;;8.10;99.90;;;;;;2610818;54;20507;-76
2022/02/01 15:16:00;;;;;;;20.73;14.73;;;8.30;99.90;;;;;;2610196;54;20966;-76
2022/02/01 15:18:25;;;;;;;23.07;19.57;;;8.20;99.90;;;;;;2609002;46;20462;-77
2022/02/01 15:20:52;;;;;;;23.43;14.23;;;8.30;99.90;;;;;;2607068;54;20944;-76
2022/02/01 15:23:20;;;;;;;21.03;15.93;;;8.30;99.90;;;;;;2609163;54;21271;-76
2022/02/01 15:25:46;;;;;;;22.23;15.73;;;8.40;99.90;;;;;;2608403;54;20966;-76
2022/02/01 15:28:13;;;;;;;27.17;20.27;;;8.40;99.90;;;;;;2611215;54;20484;-77
2022/02/01 15:30:39;;;;;;;24.67;19.80;;;8.40;99.90;;;;;;2608714;54;20375;-76
2022/02/01 15:33:06;;;;;;;20.97;16.17;;;8.50;99.90;;;;;;2610610;54;20415;-77
2022/02/01 15:35:33;;;;;;;17.40;11.57;;;8.50;99.90;;;;;;2606937;54;20539;-76